sensor_id;sensor_type;location;lat;lon;timestamp;temperature;humidity
22923;DHT22;11627;51.322;22.816;2023-07-09T00:00:18;18.60;99.90
22923;DHT22;11627;51.322;22.816;2023-07-09T00:02:45;18.90;12.70
22923;DHT22;11627;51.322;22.816;2023-07-09T00:05:18;19.00;99.90
22923;DHT22;11627;51.322;22.816;2023-07-09T00:07:45;19.10;99.90
22923;DHT22;11627;51.322;22.816;2023-07-09T00:10:18;19.50;99.90
22923;DHT22;11627;51.322;22.816;2023-07-09T00:12:49;19.20;37.00
22923;DHT22;11627;51.322;22.816;2023-07-09T00:15:16;19.40;99.90
22923;DHT22;11627;51.322;22.816;2023-07-09T00:17:48;19.30;1.00
22923;DHT22;11627;51.322;22.816;2023-07-09T00:20:17;19.90;23.30
22923;DHT22;11627;51.322;22.816;2023-07-09T00:22:46;20.00;99.90
22923;DHT22;11627;51.322;22.816;2023-07-09T00:25:20;20.20;99.90
22923;DHT22;11627;51.322;22.816;2023-07-09T00:32:49;20.00;99.90
22923;DHT22;11627;51.322;22.816;2023-07-09T00:37:45;19.50;99.90
22923;DHT22;11627;51.322;22.816;2023-07-09T00:40:19;20.00;99.90
22923;DHT22;11627;51.322;22.816;2023-07-09T00:42:50;20.00;99.90
22923;DHT22;11627;51.322;22.816;2023-07-09T00:45:25;19.40;1.00
22923;DHT22;11627;51.322;22.816;2023-07-09T00:48:00;18.70;99.90
22923;DHT22;11627;51.322;22.816;2023-07-09T00:50:39;19.00;99.90
22923;DHT22;11627;51.322;22.816;2023-07-09T00:53:15;18.60;1.00
22923;DHT22;11627;51.322;22.816;2023-07-09T00:56:16;17.90;74.60
22923;DHT22;11627;51.322;22.816;2023-07-09T00:58:50;18.00;99.90
22923;DHT22;11627;51.322;22.816;2023-07-09T01:01:18;17.70;1.00
22923;DHT22;11627;51.322;22.816;2023-07-09T01:06:13;16.20;99.90
22923;DHT22;11627;51.322;22.816;2023-07-09T01:08:40;18.10;99.90
22923;DHT22;11627;51.322;22.816;2023-07-09T01:11:27;18.20;96.00
22923;DHT22;11627;51.322;22.816;2023-07-09T01:13:56;18.30;99.90
22923;DHT22;11627;51.322;22.816;2023-07-09T01:16:28;18.20;99.90
22923;DHT22;11627;51.322;22.816;2023-07-09T01:26:18;18.50;99.90
22923;DHT22;11627;51.322;22.816;2023-07-09T01:31:14;18.80;99.90
22923;DHT22;11627;51.322;22.816;2023-07-09T01:33:41;19.10;99.90
22923;DHT22;11627;51.322;22.816;2023-07-09T01:36:11;18.90;1.00
22923;DHT22;11627;51.322;22.816;2023-07-09T01:43:33;18.60;67.40
22923;DHT22;11627;51.322;22.816;2023-07-09T01:48:27;18.70;99.90
22923;DHT22;11627;51.322;22.816;2023-07-09T01:50:53;19.00;1.00
22923;DHT22;11627;51.322;22.816;2023-07-09T01:53:23;19.00;1.00
22923;DHT22;11627;51.322;22.816;2023-07-09T01:55:51;18.50;1.00
22923;DHT22;11627;51.322;22.816;2023-07-09T01:58:17;18.40;1.00
22923;DHT22;11627;51.322;22.816;2023-07-09T02:03:10;18.90;1.00
22923;DHT22;11627;51.322;22.816;2023-07-09T02:05:37;18.50;99.90
22923;DHT22;11627;51.322;22.816;2023-07-09T02:08:03;18.10;99.90
22923;DHT22;11627;51.322;22.816;2023-07-09T02:10:30;17.90;1.00
22923;DHT22;11627;51.322;22.816;2023-07-09T02:12:55;17.90;1.00
22923;DHT22;11627;51.322;22.816;2023-07-09T02:15:22;17.70;96.60
22923;DHT22;11627;51.322;22.816;2023-07-09T02:20:14;17.50;99.90
22923;DHT22;11627;51.322;22.816;2023-07-09T02:22:41;17.40;99.90
22923;DHT22;11627;51.322;22.816;2023-07-09T02:25:07;17.40;99.90
22923;DHT22;11627;51.322;22.816;2023-07-09T02:27:35;17.80;99.90
22923;DHT22;11627;51.322;22.816;2023-07-09T02:30:02;18.20;99.90
22923;DHT22;11627;51.322;22.816;2023-07-09T02:32:29;17.80;99.90
22923;DHT22;11627;51.322;22.816;2023-07-09T02:34:55;18.30;99.90
22923;DHT22;11627;51.322;22.816;2023-07-09T02:37:26;18.30;99.90
22923;DHT22;11627;51.322;22.816;2023-07-09T02:39:52;17.70;99.90
22923;DHT22;11627;51.322;22.816;2023-07-09T02:42:20;18.30;99.70
22923;DHT22;11627;51.322;22.816;2023-07-09T02:44:47;17.70;99.90
22923;DHT22;11627;51.322;22.816;2023-07-09T02:47:15;17.80;99.90
22923;DHT22;11627;51.322;22.816;2023-07-09T02:49:41;17.80;99.90
22923;DHT22;11627;51.322;22.816;2023-07-09T02:52:07;17.40;1.00
22923;DHT22;11627;51.322;22.816;2023-07-09T02:54:34;17.70;1.00
22923;DHT22;11627;51.322;22.816;2023-07-09T02:59:26;17.90;99.90
22923;DHT22;11627;51.322;22.816;2023-07-09T03:01:55;17.90;99.90
22923;DHT22;11627;51.322;22.816;2023-07-09T03:26:22;18.40;54.40
22923;DHT22;11627;51.322;22.816;2023-07-09T03:28:48;18.40;1.00
22923;DHT22;11627;51.322;22.816;2023-07-09T03:31:14;18.40;99.90
22923;DHT22;11627;51.322;22.816;2023-07-09T03:48:19;18.20;99.90
22923;DHT22;11627;51.322;22.816;2023-07-09T03:50:47;18.50;49.40
22923;DHT22;11627;51.322;22.816;2023-07-09T03:53:14;18.60;79.60
22923;DHT22;11627;51.322;22.816;2023-07-09T03:55:41;18.80;1.00
22923;DHT22;11627;51.322;22.816;2023-07-09T03:58:07;18.50;99.90
22923;DHT22;11627;51.322;22.816;2023-07-09T04:00:33;18.80;1.00
22923;DHT22;11627;51.322;22.816;2023-07-09T04:03:00;18.90;1.00
22923;DHT22;11627;51.322;22.816;2023-07-09T04:05:27;18.60;1.00
22923;DHT22;11627;51.322;22.816;2023-07-09T04:10:20;19.30;91.70
22923;DHT22;11627;51.322;22.816;2023-07-09T04:15:13;19.30;99.90
22923;DHT22;11627;51.322;22.816;2023-07-09T04:17:40;19.30;99.90
22923;DHT22;11627;51.322;22.816;2023-07-09T04:20:07;19.70;99.90
22923;DHT22;11627;51.322;22.816;2023-07-09T04:22:36;19.70;1.00
22923;DHT22;11627;51.322;22.816;2023-07-09T04:25:05;19.30;1.00
22923;DHT22;11627;51.322;22.816;2023-07-09T04:27:33;19.40;99.90
22923;DHT22;11627;51.322;22.816;2023-07-09T04:39:45;19.00;99.90
22923;DHT22;11627;51.322;22.816;2023-07-09T04:42:15;19.40;99.90
22923;DHT22;11627;51.322;22.816;2023-07-09T04:44:44;19.40;99.90
22923;DHT22;11627;51.322;22.816;2023-07-09T04:47:10;19.90;63.20
22923;DHT22;11627;51.322;22.816;2023-07-09T04:52:04;20.20;99.90
22923;DHT22;11627;51.322;22.816;2023-07-09T04:54:30;19.90;1.00
22923;DHT22;11627;51.322;22.816;2023-07-09T04:56:56;19.40;1.00
22923;DHT22;11627;51.322;22.816;2023-07-09T04:59:24;19.60;99.90
22923;DHT22;11627;51.322;22.816;2023-07-09T05:01:50;19.90;95.30
22923;DHT22;11627;51.322;22.816;2023-07-09T05:06:42;19.90;99.90
22923;DHT22;11627;51.322;22.816;2023-07-09T05:09:10;19.90;99.90
22923;DHT22;11627;51.322;22.816;2023-07-09T05:11:37;19.60;94.80
22923;DHT22;11627;51.322;22.816;2023-07-09T05:14:03;19.90;99.90
22923;DHT22;11627;51.322;22.816;2023-07-09T05:16:29;19.70;99.90
22923;DHT22;11627;51.322;22.816;2023-07-09T05:18:55;19.90;44.70
22923;DHT22;11627;51.322;22.816;2023-07-09T05:21:21;20.40;99.90
22923;DHT22;11627;51.322;22.816;2023-07-09T05:23:47;20.20;99.90
22923;DHT22;11627;51.322;22.816;2023-07-09T05:26:13;20.00;99.90
22923;DHT22;11627;51.322;22.816;2023-07-09T05:31:05;20.20;99.90
22923;DHT22;11627;51.322;22.816;2023-07-09T05:35:57;20.60;99.90
22923;DHT22;11627;51.322;22.816;2023-07-09T05:38:23;20.20;99.90
22923;DHT22;11627;51.322;22.816;2023-07-09T05:41:03;20.50;1.00
22923;DHT22;11627;51.322;22.816;2023-07-09T05:43:31;20.60;1.00
22923;DHT22;11627;51.322;22.816;2023-07-09T05:46:04;21.00;99.90
22923;DHT22;11627;51.322;22.816;2023-07-09T05:51:00;20.50;99.90
22923;DHT22;11627;51.322;22.816;2023-07-09T05:55:55;20.90;99.90
22923;DHT22;11627;51.322;22.816;2023-07-09T05:58:22;21.10;1.00
22923;DHT22;11627;51.322;22.816;2023-07-09T06:00:54;21.10;99.90
22923;DHT22;11627;51.322;22.816;2023-07-09T06:05:50;21.00;1.00
22923;DHT22;11627;51.322;22.816;2023-07-09T06:08:19;21.30;99.90
22923;DHT22;11627;51.322;22.816;2023-07-09T06:11:00;21.40;1.00
22923;DHT22;11627;51.322;22.816;2023-07-09T06:13:31;21.30;99.90
22923;DHT22;11627;51.322;22.816;2023-07-09T06:15:59;21.50;1.00
22923;DHT22;11627;51.322;22.816;2023-07-09T06:21:02;21.50;23.20
22923;DHT22;11627;51.322;22.816;2023-07-09T06:23:31;21.60;59.70
22923;DHT22;11627;51.322;22.816;2023-07-09T06:26:01;22.00;99.90
22923;DHT22;11627;51.322;22.816;2023-07-09T06:33:27;22.10;99.90
22923;DHT22;11627;51.322;22.816;2023-07-09T06:35:57;21.90;99.90
22923;DHT22;11627;51.322;22.816;2023-07-09T06:38:25;21.90;99.90
22923;DHT22;11627;51.322;22.816;2023-07-09T06:43:20;22.00;1.00
22923;DHT22;11627;51.322;22.816;2023-07-09T06:45:55;22.10;99.90
22923;DHT22;11627;51.322;22.816;2023-07-09T06:48:24;22.40;1.00
22923;DHT22;11627;51.322;22.816;2023-07-09T06:50:52;22.20;99.90
22923;DHT22;11627;51.322;22.816;2023-07-09T06:55:47;22.50;1.00
22923;DHT22;11627;51.322;22.816;2023-07-09T07:03:09;22.00;1.00
22923;DHT22;11627;51.322;22.816;2023-07-09T07:08:04;22.80;1.00
22923;DHT22;11627;51.322;22.816;2023-07-09T07:20:16;22.90;99.90
22923;DHT22;11627;51.322;22.816;2023-07-09T07:44:40;23.50;99.90
22923;DHT22;11627;51.322;22.816;2023-07-09T07:49:32;23.50;99.90
22923;DHT22;11627;51.322;22.816;2023-07-09T07:51:58;23.40;99.90
22923;DHT22;11627;51.322;22.816;2023-07-09T07:54:24;23.10;99.90
22923;DHT22;11627;51.322;22.816;2023-07-09T07:56:50;23.30;99.90
22923;DHT22;11627;51.322;22.816;2023-07-09T07:59:19;23.40;99.90
22923;DHT22;11627;51.322;22.816;2023-07-09T08:01:45;23.50;1.00
22923;DHT22;11627;51.322;22.816;2023-07-09T08:06:38;23.50;1.00
22923;DHT22;11627;51.322;22.816;2023-07-09T08:11:30;23.50;1.00
22923;DHT22;11627;51.322;22.816;2023-07-09T08:28:43;23.60;33.60
22923;DHT22;11627;51.322;22.816;2023-07-09T08:38:28;24.00;1.00
22923;DHT22;11627;51.322;22.816;2023-07-09T08:43:51;23.90;1.00
22923;DHT22;11627;51.322;22.816;2023-07-09T08:51:33;23.90;32.30
22923;DHT22;11627;51.322;22.816;2023-07-09T08:56:32;24.00;99.90
22923;DHT22;11627;51.322;22.816;2023-07-09T08:59:00;23.90;99.90
22923;DHT22;11627;51.322;22.816;2023-07-09T09:01:40;24.00;99.90
22923;DHT22;11627;51.322;22.816;2023-07-09T09:04:29;23.60;99.90
22923;DHT22;11627;51.322;22.816;2023-07-09T09:09:57;24.40;29.70
22923;DHT22;11627;51.322;22.816;2023-07-09T09:12:38;24.20;99.90
22923;DHT22;11627;51.322;22.816;2023-07-09T09:15:16;24.20;99.90
22923;DHT22;11627;51.322;22.816;2023-07-09T09:30:19;24.30;99.90
22923;DHT22;11627;51.322;22.816;2023-07-09T09:37:53;24.40;99.90
22923;DHT22;11627;51.322;22.816;2023-07-09T09:40:21;24.30;6.70
22923;DHT22;11627;51.322;22.816;2023-07-09T09:42:50;24.30;1.00
22923;DHT22;11627;51.322;22.816;2023-07-09T09:45:19;24.70;99.90
22923;DHT22;11627;51.322;22.816;2023-07-09T09:47:59;24.40;7.70
22923;DHT22;11627;51.322;22.816;2023-07-09T09:50:31;24.30;99.90
22923;DHT22;11627;51.322;22.816;2023-07-09T10:00:26;24.60;99.90
22923;DHT22;11627;51.322;22.816;2023-07-09T10:03:03;24.70;99.90
22923;DHT22;11627;51.322;22.816;2023-07-09T10:05:41;24.70;99.90
22923;DHT22;11627;51.322;22.816;2023-07-09T10:11:04;24.90;99.90
22923;DHT22;11627;51.322;22.816;2023-07-09T10:13:43;24.80;80.00
22923;DHT22;11627;51.322;22.816;2023-07-09T10:18:50;24.40;99.90
22923;DHT22;11627;51.322;22.816;2023-07-09T10:26:46;24.90;99.90
22923;DHT22;11627;51.322;22.816;2023-07-09T10:35:09;24.50;1.00
22923;DHT22;11627;51.322;22.816;2023-07-09T10:38:03;24.40;1.00
22923;DHT22;11627;51.322;22.816;2023-07-09T10:40:41;24.60;30.00
22923;DHT22;11627;51.322;22.816;2023-07-09T10:43:34;24.20;1.00
22923;DHT22;11627;51.322;22.816;2023-07-09T10:46:14;24.70;42.70
22923;DHT22;11627;51.322;22.816;2023-07-09T10:48:44;24.90;99.90
22923;DHT22;11627;51.322;22.816;2023-07-09T10:54:52;24.70;99.90
22923;DHT22;11627;51.322;22.816;2023-07-09T10:57:28;25.00;99.90
22923;DHT22;11627;51.322;22.816;2023-07-09T10:59:56;25.10;99.90
22923;DHT22;11627;51.322;22.816;2023-07-09T11:02:35;25.20;99.90
22923;DHT22;11627;51.322;22.816;2023-07-09T11:05:06;25.10;99.90
22923;DHT22;11627;51.322;22.816;2023-07-09T11:10:27;25.20;99.90
22923;DHT22;11627;51.322;22.816;2023-07-09T11:13:11;25.20;99.90
22923;DHT22;11627;51.322;22.816;2023-07-09T11:15:42;25.20;99.90
22923;DHT22;11627;51.322;22.816;2023-07-09T11:18:23;25.10;99.90
22923;DHT22;11627;51.322;22.816;2023-07-09T11:21:05;24.80;99.90
22923;DHT22;11627;51.322;22.816;2023-07-09T11:23:59;25.20;99.90
22923;DHT22;11627;51.322;22.816;2023-07-09T11:26:28;25.10;99.90
22923;DHT22;11627;51.322;22.816;2023-07-09T11:29:14;25.10;99.90
22923;DHT22;11627;51.322;22.816;2023-07-09T11:31:44;25.10;99.90
22923;DHT22;11627;51.322;22.816;2023-07-09T11:34:17;25.00;99.90
22923;DHT22;11627;51.322;22.816;2023-07-09T11:36:58;25.40;99.90
22923;DHT22;11627;51.322;22.816;2023-07-09T11:39:28;25.10;99.90
22923;DHT22;11627;51.322;22.816;2023-07-09T11:50:02;25.30;1.00
22923;DHT22;11627;51.322;22.816;2023-07-09T11:52:35;25.50;1.00
22923;DHT22;11627;51.322;22.816;2023-07-09T11:57:53;25.90;91.40
22923;DHT22;11627;51.322;22.816;2023-07-09T12:00:23;25.50;99.90
22923;DHT22;11627;51.322;22.816;2023-07-09T12:05:25;25.40;1.00
22923;DHT22;11627;51.322;22.816;2023-07-09T12:07:52;25.50;99.90
22923;DHT22;11627;51.322;22.816;2023-07-09T12:10:23;25.40;99.90
22923;DHT22;11627;51.322;22.816;2023-07-09T12:12:56;25.50;99.90
22923;DHT22;11627;51.322;22.816;2023-07-09T12:18:01;25.50;99.90
22923;DHT22;11627;51.322;22.816;2023-07-09T12:20:35;25.80;1.00
22923;DHT22;11627;51.322;22.816;2023-07-09T12:28:21;25.50;1.00
22923;DHT22;11627;51.322;22.816;2023-07-09T12:30:50;25.50;1.00
22923;DHT22;11627;51.322;22.816;2023-07-09T12:33:25;25.30;1.00
22923;DHT22;11627;51.322;22.816;2023-07-09T12:36:04;25.60;1.00
22923;DHT22;11627;51.322;22.816;2023-07-09T12:38:41;25.70;1.00
22923;DHT22;11627;51.322;22.816;2023-07-09T12:43:47;25.60;99.90
22923;DHT22;11627;51.322;22.816;2023-07-09T12:46:14;25.60;99.90
22923;DHT22;11627;51.322;22.816;2023-07-09T12:48:40;25.70;99.90
22923;DHT22;11627;51.322;22.816;2023-07-09T12:51:09;25.60;1.00
22923;DHT22;11627;51.322;22.816;2023-07-09T12:53:36;25.70;1.00
22923;DHT22;11627;51.322;22.816;2023-07-09T12:56:03;25.60;1.00
22923;DHT22;11627;51.322;22.816;2023-07-09T12:58:37;25.70;1.00
22923;DHT22;11627;51.322;22.816;2023-07-09T13:01:15;25.70;42.20
22923;DHT22;11627;51.322;22.816;2023-07-09T13:03:53;25.80;99.90
22923;DHT22;11627;51.322;22.816;2023-07-09T13:06:36;25.70;1.00
22923;DHT22;11627;51.322;22.816;2023-07-09T13:09:21;25.50;77.90
22923;DHT22;11627;51.322;22.816;2023-07-09T13:11:48;25.20;99.90
22923;DHT22;11627;51.322;22.816;2023-07-09T13:14:20;25.70;99.90
22923;DHT22;11627;51.322;22.816;2023-07-09T13:17:02;25.80;1.00
22923;DHT22;11627;51.322;22.816;2023-07-09T13:19:33;25.80;1.00
22923;DHT22;11627;51.322;22.816;2023-07-09T13:21:59;26.20;99.90
22923;DHT22;11627;51.322;22.816;2023-07-09T13:24:27;25.90;1.00
22923;DHT22;11627;51.322;22.816;2023-07-09T13:26:55;25.90;99.90
22923;DHT22;11627;51.322;22.816;2023-07-09T13:29:26;26.20;1.00
22923;DHT22;11627;51.322;22.816;2023-07-09T13:31:55;26.40;1.00
22923;DHT22;11627;51.322;22.816;2023-07-09T13:34:25;26.00;99.90
22923;DHT22;11627;51.322;22.816;2023-07-09T13:36:53;26.00;99.90
22923;DHT22;11627;51.322;22.816;2023-07-09T13:39:22;26.00;99.90
22923;DHT22;11627;51.322;22.816;2023-07-09T13:41:50;26.00;99.90
22923;DHT22;11627;51.322;22.816;2023-07-09T13:49:22;25.90;99.90
22923;DHT22;11627;51.322;22.816;2023-07-09T13:51:55;25.80;92.80
22923;DHT22;11627;51.322;22.816;2023-07-09T13:54:32;25.80;99.90
22923;DHT22;11627;51.322;22.816;2023-07-09T13:57:05;25.80;99.90
22923;DHT22;11627;51.322;22.816;2023-07-09T14:01:59;26.00;21.80
22923;DHT22;11627;51.322;22.816;2023-07-09T14:04:27;25.90;95.40
22923;DHT22;11627;51.322;22.816;2023-07-09T14:12:07;26.30;99.90
22923;DHT22;11627;51.322;22.816;2023-07-09T14:17:01;25.90;99.90
22923;DHT22;11627;51.322;22.816;2023-07-09T14:26:53;26.00;99.90
22923;DHT22;11627;51.322;22.816;2023-07-09T14:29:21;25.90;99.90
22923;DHT22;11627;51.322;22.816;2023-07-09T14:31:49;26.20;99.90
22923;DHT22;11627;51.322;22.816;2023-07-09T14:34:24;25.70;99.90
22923;DHT22;11627;51.322;22.816;2023-07-09T14:36:58;26.20;90.00
22923;DHT22;11627;51.322;22.816;2023-07-09T14:39:26;25.90;99.90
22923;DHT22;11627;51.322;22.816;2023-07-09T14:44:29;25.90;99.90
22923;DHT22;11627;51.322;22.816;2023-07-09T14:47:00;26.00;99.90
22923;DHT22;11627;51.322;22.816;2023-07-09T14:51:54;25.80;99.90
22923;DHT22;11627;51.322;22.816;2023-07-09T14:54:29;25.90;99.90
22923;DHT22;11627;51.322;22.816;2023-07-09T14:56:57;25.90;99.90
22923;DHT22;11627;51.322;22.816;2023-07-09T14:59:25;25.40;31.20
22923;DHT22;11627;51.322;22.816;2023-07-09T15:04:28;25.80;16.70
22923;DHT22;11627;51.322;22.816;2023-07-09T15:06:57;25.90;1.00
22923;DHT22;11627;51.322;22.816;2023-07-09T15:09:25;25.40;99.90
22923;DHT22;11627;51.322;22.816;2023-07-09T15:12:01;26.00;99.90
22923;DHT22;11627;51.322;22.816;2023-07-09T15:14:28;25.60;1.00
22923;DHT22;11627;51.322;22.816;2023-07-09T15:16:56;26.00;1.00
22923;DHT22;11627;51.322;22.816;2023-07-09T15:19:22;26.20;1.00
22923;DHT22;11627;51.322;22.816;2023-07-09T15:21:49;26.00;99.90
22923;DHT22;11627;51.322;22.816;2023-07-09T15:24:34;26.50;94.00
22923;DHT22;11627;51.322;22.816;2023-07-09T15:27:01;26.60;99.90
22923;DHT22;11627;51.322;22.816;2023-07-09T15:29:28;26.50;99.90
22923;DHT22;11627;51.322;22.816;2023-07-09T15:36:50;26.10;41.10
22923;DHT22;11627;51.322;22.816;2023-07-09T15:39:19;26.50;99.90
22923;DHT22;11627;51.322;22.816;2023-07-09T15:41:46;26.40;1.00
22923;DHT22;11627;51.322;22.816;2023-07-09T15:44:14;26.90;99.90
22923;DHT22;11627;51.322;22.816;2023-07-09T15:47:02;27.00;58.10
22923;DHT22;11627;51.322;22.816;2023-07-09T15:49:30;27.00;99.90
22923;DHT22;11627;51.322;22.816;2023-07-09T15:54:24;27.00;99.90
22923;DHT22;11627;51.322;22.816;2023-07-09T15:56:51;27.10;99.90
22923;DHT22;11627;51.322;22.816;2023-07-09T15:59:34;27.40;97.00
22923;DHT22;11627;51.322;22.816;2023-07-09T16:02:02;27.20;99.90
22923;DHT22;11627;51.322;22.816;2023-07-09T16:14:32;28.10;99.90
22923;DHT22;11627;51.322;22.816;2023-07-09T16:17:00;27.80;1.00
22923;DHT22;11627;51.322;22.816;2023-07-09T16:19:28;27.70;1.00
22923;DHT22;11627;51.322;22.816;2023-07-09T16:21:59;27.90;99.90
22923;DHT22;11627;51.322;22.816;2023-07-09T16:26:58;28.00;1.00
22923;DHT22;11627;51.322;22.816;2023-07-09T16:29:28;28.10;1.00
22923;DHT22;11627;51.322;22.816;2023-07-09T16:31:56;28.20;99.90
22923;DHT22;11627;51.322;22.816;2023-07-09T16:34:29;28.50;99.90
22923;DHT22;11627;51.322;22.816;2023-07-09T16:36:56;28.00;99.90
22923;DHT22;11627;51.322;22.816;2023-07-09T16:39:38;28.30;45.40
22923;DHT22;11627;51.322;22.816;2023-07-09T16:42:11;28.30;99.90
22923;DHT22;11627;51.322;22.816;2023-07-09T16:44:38;28.80;99.90
22923;DHT22;11627;51.322;22.816;2023-07-09T16:47:15;28.60;1.00
22923;DHT22;11627;51.322;22.816;2023-07-09T16:52:21;28.40;99.90
22923;DHT22;11627;51.322;22.816;2023-07-09T16:54:51;29.40;99.90
22923;DHT22;11627;51.322;22.816;2023-07-09T16:57:23;29.90;99.90
22923;DHT22;11627;51.322;22.816;2023-07-09T16:59:53;29.50;1.00
22923;DHT22;11627;51.322;22.816;2023-07-09T17:02:31;29.90;1.00
22923;DHT22;11627;51.322;22.816;2023-07-09T17:05:01;29.80;1.00
22923;DHT22;11627;51.322;22.816;2023-07-09T17:07:33;30.40;1.00
22923;DHT22;11627;51.322;22.816;2023-07-09T17:09:59;30.60;1.00
22923;DHT22;11627;51.322;22.816;2023-07-09T17:14:57;31.10;99.90
22923;DHT22;11627;51.322;22.816;2023-07-09T17:17:25;30.60;1.00
22923;DHT22;11627;51.322;22.816;2023-07-09T17:19:52;30.70;1.00
22923;DHT22;11627;51.322;22.816;2023-07-09T17:22:30;30.10;67.80
22923;DHT22;11627;51.322;22.816;2023-07-09T17:25:01;29.70;99.90
22923;DHT22;11627;51.322;22.816;2023-07-09T17:27:31;29.60;12.70
22923;DHT22;11627;51.322;22.816;2023-07-09T17:29:57;29.70;99.90
22923;DHT22;11627;51.322;22.816;2023-07-09T17:32:24;30.00;91.40
22923;DHT22;11627;51.322;22.816;2023-07-09T17:34:50;30.30;1.00
22923;DHT22;11627;51.322;22.816;2023-07-09T17:37:17;30.30;99.90
22923;DHT22;11627;51.322;22.816;2023-07-09T17:42:13;29.70;99.90
22923;DHT22;11627;51.322;22.816;2023-07-09T17:47:16;29.20;99.90
22923;DHT22;11627;51.322;22.816;2023-07-09T17:49:43;30.00;99.90
22923;DHT22;11627;51.322;22.816;2023-07-09T17:52:20;28.90;99.90
22923;DHT22;11627;51.322;22.816;2023-07-09T17:57:26;27.70;52.60
22923;DHT22;11627;51.322;22.816;2023-07-09T18:02:28;26.80;44.30
22923;DHT22;11627;51.322;22.816;2023-07-09T18:04:55;26.70;99.90
22923;DHT22;11627;51.322;22.816;2023-07-09T18:12:19;26.20;97.50
22923;DHT22;11627;51.322;22.816;2023-07-09T18:14:53;26.00;40.90
22923;DHT22;11627;51.322;22.816;2023-07-09T18:17:23;25.40;99.90
22923;DHT22;11627;51.322;22.816;2023-07-09T18:22:23;25.10;99.90
22923;DHT22;11627;51.322;22.816;2023-07-09T18:25:00;24.80;1.00
22923;DHT22;11627;51.322;22.816;2023-07-09T18:27:31;24.80;28.80
22923;DHT22;11627;51.322;22.816;2023-07-09T18:34:59;25.00;99.90
22923;DHT22;11627;51.322;22.816;2023-07-09T18:39:55;24.60;1.00
22923;DHT22;11627;51.322;22.816;2023-07-09T18:42:24;24.20;7.70
22923;DHT22;11627;51.322;22.816;2023-07-09T18:47:18;24.00;99.90
22923;DHT22;11627;51.322;22.816;2023-07-09T18:49:45;24.00;1.00
22923;DHT22;11627;51.322;22.816;2023-07-09T18:52:19;24.00;5.60
22923;DHT22;11627;51.322;22.816;2023-07-09T18:59:59;23.40;1.00
22923;DHT22;11627;51.322;22.816;2023-07-09T19:04:51;23.70;99.90
22923;DHT22;11627;51.322;22.816;2023-07-09T19:07:23;24.10;99.90
22923;DHT22;11627;51.322;22.816;2023-07-09T19:09:48;23.70;99.90
22923;DHT22;11627;51.322;22.816;2023-07-09T19:14:45;23.70;99.90
22923;DHT22;11627;51.322;22.816;2023-07-09T19:17:16;23.50;99.90
22923;DHT22;11627;51.322;22.816;2023-07-09T19:22:12;23.70;99.90
22923;DHT22;11627;51.322;22.816;2023-07-09T19:27:09;23.50;99.90
22923;DHT22;11627;51.322;22.816;2023-07-09T19:32:05;23.20;99.90
22923;DHT22;11627;51.322;22.816;2023-07-09T19:37:15;23.10;99.90
22923;DHT22;11627;51.322;22.816;2023-07-09T19:42:15;22.90;99.90
22923;DHT22;11627;51.322;22.816;2023-07-09T19:47:23;22.80;79.50
22923;DHT22;11627;51.322;22.816;2023-07-09T19:49:52;22.60;99.90
22923;DHT22;11627;51.322;22.816;2023-07-09T19:52:20;22.50;99.90
22923;DHT22;11627;51.322;22.816;2023-07-09T19:54:48;22.60;99.90
22923;DHT22;11627;51.322;22.816;2023-07-09T19:57:15;22.40;99.90
22923;DHT22;11627;51.322;22.816;2023-07-09T20:02:20;22.10;99.90
22923;DHT22;11627;51.322;22.816;2023-07-09T20:04:49;22.10;99.90
22923;DHT22;11627;51.322;22.816;2023-07-09T20:07:17;20.40;67.10
22923;DHT22;11627;51.322;22.816;2023-07-09T20:12:23;22.20;1.00
22923;DHT22;11627;51.322;22.816;2023-07-09T20:17:22;21.80;99.90
22923;DHT22;11627;51.322;22.816;2023-07-09T20:19:48;22.20;99.90
22923;DHT22;11627;51.322;22.816;2023-07-09T20:22:22;21.90;1.00
22923;DHT22;11627;51.322;22.816;2023-07-09T20:24:49;22.00;99.90
22923;DHT22;11627;51.322;22.816;2023-07-09T20:27:17;22.00;1.00
22923;DHT22;11627;51.322;22.816;2023-07-09T20:29:45;21.80;99.90
22923;DHT22;11627;51.322;22.816;2023-07-09T20:32:19;22.10;99.90
22923;DHT22;11627;51.322;22.816;2023-07-09T20:34:52;21.80;1.00
22923;DHT22;11627;51.322;22.816;2023-07-09T20:37:20;21.90;1.00
22923;DHT22;11627;51.322;22.816;2023-07-09T20:44:42;21.80;1.00
22923;DHT22;11627;51.322;22.816;2023-07-09T20:47:19;21.70;1.00
22923;DHT22;11627;51.322;22.816;2023-07-09T20:52:12;21.50;1.00
22923;DHT22;11627;51.322;22.816;2023-07-09T20:54:39;21.40;1.00
22923;DHT22;11627;51.322;22.816;2023-07-09T20:57:18;21.40;99.90
22923;DHT22;11627;51.322;22.816;2023-07-09T20:59:47;21.10;1.00
22923;DHT22;11627;51.322;22.816;2023-07-09T21:02:21;20.60;99.90
22923;DHT22;11627;51.322;22.816;2023-07-09T21:09:44;21.20;99.90
22923;DHT22;11627;51.322;22.816;2023-07-09T21:12:11;20.50;99.90
22923;DHT22;11627;51.322;22.816;2023-07-09T21:14:38;20.80;99.90
22923;DHT22;11627;51.322;22.816;2023-07-09T21:17:05;20.60;99.90
22923;DHT22;11627;51.322;22.816;2023-07-09T21:19:35;20.40;99.90
22923;DHT22;11627;51.322;22.816;2023-07-09T21:22:02;20.60;99.90
22923;DHT22;11627;51.322;22.816;2023-07-09T21:24:31;20.80;99.90
22923;DHT22;11627;51.322;22.816;2023-07-09T21:29:26;21.00;99.90
22923;DHT22;11627;51.322;22.816;2023-07-09T21:34:26;21.10;99.90
22923;DHT22;11627;51.322;22.816;2023-07-09T21:36:55;21.10;99.90
22923;DHT22;11627;51.322;22.816;2023-07-09T21:39:23;21.10;99.90
22923;DHT22;11627;51.322;22.816;2023-07-09T21:41:55;21.00;99.90
22923;DHT22;11627;51.322;22.816;2023-07-09T21:44:24;20.70;99.90
22923;DHT22;11627;51.322;22.816;2023-07-09T21:46:55;20.80;1.00
22923;DHT22;11627;51.322;22.816;2023-07-09T21:49:26;20.70;1.00
22923;DHT22;11627;51.322;22.816;2023-07-09T21:51:53;20.40;1.00
22923;DHT22;11627;51.322;22.816;2023-07-09T21:56:55;20.10;1.00
22923;DHT22;11627;51.322;22.816;2023-07-09T21:59:24;20.10;99.90
22923;DHT22;11627;51.322;22.816;2023-07-09T22:01:53;19.50;1.00
22923;DHT22;11627;51.322;22.816;2023-07-09T22:04:36;19.30;99.90
22923;DHT22;11627;51.322;22.816;2023-07-09T22:07:16;19.80;99.90
22923;DHT22;11627;51.322;22.816;2023-07-09T22:09:51;19.40;45.90
22923;DHT22;11627;51.322;22.816;2023-07-09T22:12:19;19.40;99.90
22923;DHT22;11627;51.322;22.816;2023-07-09T22:14:54;19.40;16.30
22923;DHT22;11627;51.322;22.816;2023-07-09T22:17:23;19.40;99.90
22923;DHT22;11627;51.322;22.816;2023-07-09T22:19:59;19.40;99.90
22923;DHT22;11627;51.322;22.816;2023-07-09T22:22:27;19.50;94.40